Time;durP1;ratioP1;P1;durP2;ratioP2;P2;SDS_P1;SDS_P2;PMS_P1;PMS_P2;Temp;Humidity;BMP_temperature;BMP_pressure;BME280_temperature;BME280_humidity;BME280_pressure;Samples;Min_cycle;Max_cycle;Signal;HPM_P1;HPM_P2
2022/09/28 00:01:50;;;;;;;8.73;3.17;;;13.70;99.90;;;;;;5025082;28;20065;-68
2022/09/28 00:04:17;;;;;;;5.13;2.38;;;13.70;99.90;;;;;;5032934;28;20487;-68
2022/09/28 00:06:43;;;;;;;4.45;2.45;;;13.60;99.90;;;;;;5034345;28;20084;-68
2022/09/28 00:09:09;;;;;;;6.63;2.85;;;13.60;99.90;;;;;;5042482;28;20061;-69
2022/09/28 00:11:35;;;;;;;5.78;2.70;;;13.60;99.90;;;;;;5032111;28;20041;-68
2022/09/28 00:14:02;;;;;;;5.90;2.30;;;13.60;99.90;;;;;;5032468;28;20029;-69
2022/09/28 00:16:31;;;;;;;4.55;2.67;;;13.50;99.90;;;;;;5032467;28;20029;-68
2022/09/28 00:18:58;;;;;;;4.40;2.00;;;13.50;99.90;;;;;;5032317;28;20108;-67
2022/09/28 00:21:29;;;;;;;7.93;2.67;;;13.50;99.90;;;;;;5031826;28;20021;-67
2022/09/28 00:24:16;;;;;;;5.15;2.30;;;13.50;99.90;;;;;;5031969;28;20068;-67
2022/09/28 00:26:46;;;;;;;6.38;2.13;;;13.50;99.90;;;;;;5032122;28;20029;-67
2022/09/28 00:29:30;;;;;;;4.22;1.90;;;13.50;99.90;;;;;;5032572;28;20040;-69
2022/09/28 00:32:05;;;;;;;4.38;1.95;;;13.50;99.90;;;;;;5032332;28;20108;-68
2022/09/28 00:34:36;;;;;;;6.18;1.85;;;13.50;99.90;;;;;;5032241;28;20033;-68
2022/09/28 00:37:04;;;;;;;2.58;1.88;;;13.50;99.90;;;;;;5032280;28;20037;-68
2022/09/28 00:39:30;;;;;;;8.00;1.92;;;13.50;99.90;;;;;;5031157;28;20021;-67
2022/09/28 00:41:57;;;;;;;3.35;2.33;;;13.50;99.90;;;;;;5014537;28;20037;-68
2022/09/28 00:44:26;;;;;;;3.47;2.15;;;13.50;99.90;;;;;;5010907;28;20029;-65
2022/09/28 00:46:53;;;;;;;2.97;1.60;;;13.60;99.90;;;;;;5032311;28;20026;-68
2022/09/28 00:49:32;;;;;;;4.57;2.15;;;13.50;99.90;;;;;;5032277;28;20021;-69
2022/09/28 00:52:00;;;;;;;4.32;1.63;;;13.60;99.90;;;;;;5016111;28;20053;-66
2022/09/28 00:54:34;;;;;;;4.32;2.10;;;13.60;99.90;;;;;;5032865;28;20087;-68
2022/09/28 00:57:01;;;;;;;4.22;1.52;;;13.60;99.90;;;;;;5015976;28;20056;-65
2022/09/28 00:59:28;;;;;;;3.17;2.15;;;13.70;99.90;;;;;;5032683;28;20024;-66
2022/09/28 01:01:54;;;;;;;4.38;2.10;;;13.70;99.90;;;;;;5032469;28;20040;-65
2022/09/28 01:04:21;;;;;;;5.28;1.80;;;13.70;99.90;;;;;;5032720;28;20024;-66
2022/09/28 01:06:48;;;;;;;2.25;1.52;;;13.70;99.90;;;;;;5018161;28;20037;-68
2022/09/28 01:09:16;;;;;;;2.33;1.40;;;13.70;99.90;;;;;;5030027;28;20042;-68
2022/09/28 01:11:42;;;;;;;3.35;1.73;;;13.60;99.90;;;;;;5049446;28;20035;-67
2022/09/28 01:14:13;;;;;;;4.70;2.20;;;13.70;99.90;;;;;;5017608;28;20454;-69
2022/09/28 01:17:14;;;;;;;3.03;1.92;;;13.70;99.90;;;;;;5035766;28;20018;-68
2022/09/28 01:19:57;;;;;;;3.80;1.63;;;13.60;99.90;;;;;;5017489;28;20034;-68
2022/09/28 01:22:30;;;;;;;4.03;1.70;;;13.60;99.90;;;;;;5017988;28;20538;-68
2022/09/28 01:25:09;;;;;;;;;;;13.70;99.90;;;;;;5036112;28;20112;-69
2022/09/28 01:27:48;;;;;;;4.20;1.98;;;13.70;99.90;;;;;;5017674;28;19992;-68
2022/09/28 01:30:19;;;;;;;5.10;1.83;;;13.60;99.90;;;;;;5011657;28;20026;-68
2022/09/28 01:33:07;;;;;;;4.20;2.28;;;13.70;99.90;;;;;;5035515;28;20018;-68
2022/09/28 01:35:42;;;;;;;3.85;1.98;;;13.70;99.90;;;;;;5034049;28;20373;-68
2022/09/28 01:38:20;;;;;;;3.53;2.17;;;13.70;99.90;;;;;;5017251;28;20120;-68
2022/09/28 01:40:46;;;;;;;4.22;1.50;;;13.50;99.90;;;;;;5017472;28;20448;-69
2022/09/28 01:43:31;;;;;;;4.05;2.05;;;13.60;99.90;;;;;;5017390;28;20041;-68
2022/09/28 01:46:06;;;;;;;2.83;1.92;;;13.50;99.90;;;;;;5014297;28;20049;-68
2022/09/28 01:48:41;;;;;;;2.38;1.73;;;13.40;99.90;;;;;;5014343;28;20029;-68
2022/09/28 01:51:16;;;;;;;3.53;2.03;;;13.40;99.90;;;;;;5033060;28;21704;-68
2022/09/28 01:53:48;;;;;;;3.92;1.90;;;13.40;99.90;;;;;;5033745;28;20038;-68
2022/09/28 01:56:23;;;;;;;6.30;2.10;;;13.40;99.90;;;;;;5033585;28;20067;-68
2022/09/28 01:59:00;;;;;;;3.25;1.95;;;13.40;99.90;;;;;;5029187;28;20030;-69
2022/09/28 02:01:58;;;;;;;3.90;2.25;;;13.40;99.90;;;;;;5034749;28;20030;-68
2022/09/28 02:04:30;;;;;;;3.63;1.90;;;13.30;99.90;;;;;;5000060;28;20033;-68
2022/09/28 02:07:02;;;;;;;7.07;1.92;;;13.40;99.90;;;;;;5031277;28;20530;-69
2022/09/28 02:09:55;;;;;;;5.13;1.85;;;13.30;99.90;;;;;;5032432;28;20042;-68
2022/09/28 02:12:29;;;;;;;6.40;1.77;;;13.30;99.90;;;;;;5034721;28;20029;-68
2022/09/28 02:15:07;;;;;;;2.88;2.13;;;13.30;99.90;;;;;;5033197;28;20038;-68
2022/09/28 02:17:33;;;;;;;5.43;1.80;;;13.30;99.90;;;;;;5016986;28;20104;-69
2022/09/28 02:19:59;;;;;;;3.30;1.90;;;13.30;99.90;;;;;;5016395;28;20056;-68
2022/09/28 02:22:29;;;;;;;4.07;1.70;;;13.30;99.90;;;;;;5000257;28;20464;-67
2022/09/28 02:25:22;;;;;;;3.88;2.22;;;13.30;99.90;;;;;;5016509;28;20037;-67
2022/09/28 02:27:58;;;;;;;5.13;1.90;;;13.40;99.90;;;;;;5016544;28;20025;-68
2022/09/28 02:30:26;;;;;;;2.88;1.63;;;13.40;99.90;;;;;;5016131;28;20471;-67
2022/09/28 02:32:58;;;;;;;2.97;2.20;;;13.40;99.90;;;;;;5034430;28;20032;-68
2022/09/28 02:35:24;;;;;;;4.22;1.92;;;13.40;99.90;;;;;;5016318;28;20037;-69
2022/09/28 02:37:50;;;;;;;3.85;1.75;;;13.40;99.90;;;;;;5033955;28;20072;-68
2022/09/28 02:40:19;;;;;;;4.13;2.22;;;13.40;99.90;;;;;;5016396;28;20030;-68
2022/09/28 02:43:10;;;;;;;3.05;2.05;;;13.40;99.90;;;;;;5032919;28;20018;-68
2022/09/28 02:45:58;;;;;;;3.70;2.15;;;13.40;99.90;;;;;;5016132;28;20072;-68
2022/09/28 02:48:44;;;;;;;;;;;13.40;99.90;;;;;;5016772;28;20021;-69
2022/09/28 02:51:37;;;;;;;5.47;2.88;;;13.50;99.90;;;;;;5048723;28;20282;-69
2022/09/28 02:54:27;;;;;;;6.32;3.00;;;13.50;99.90;;;;;;5032361;28;20488;-68
2022/09/28 02:57:08;;;;;;;5.63;3.28;;;13.50;99.90;;;;;;5015950;28;20120;-68
2022/09/28 02:59:51;;;;;;;6.53;3.10;;;13.50;99.90;;;;;;5031999;28;20024;-68
2022/09/28 03:02:21;;;;;;;6.07;3.00;;;13.50;99.90;;;;;;5015929;28;20031;-67
2022/09/28 03:05:19;;;;;;;4.80;2.88;;;13.50;99.90;;;;;;5016057;28;20491;-68
2022/09/28 03:08:00;;;;;;;4.15;2.70;;;13.50;99.90;;;;;;5028862;28;20137;-67
2022/09/28 03:10:37;;;;;;;5.68;2.90;;;13.50;99.90;;;;;;5015516;28;20017;-68
2022/09/28 03:13:04;;;;;;;3.90;2.35;;;13.60;99.90;;;;;;5033130;28;20048;-69
2022/09/28 03:15:33;;;;;;;4.20;2.38;;;13.50;99.90;;;;;;5027900;28;20711;-69
2022/09/28 03:18:00;;;;;;;4.93;2.83;;;13.50;99.90;;;;;;5032116;28;20026;-69
2022/09/28 03:20:27;;;;;;;5.15;2.40;;;13.60;99.90;;;;;;5015585;28;20033;-68
2022/09/28 03:22:53;;;;;;;5.38;2.47;;;13.60;99.90;;;;;;5031480;28;20122;-68
2022/09/28 03:25:19;;;;;;;6.28;2.40;;;13.60;99.90;;;;;;5015661;28;20022;-68
2022/09/28 03:27:45;;;;;;;2.67;2.10;;;13.60;99.90;;;;;;5015453;28;20468;-69
2022/09/28 03:30:15;;;;;;;4.03;2.50;;;13.60;99.90;;;;;;5015263;28;20032;-69
2022/09/28 03:32:44;;;;;;;5.85;2.30;;;13.60;99.90;;;;;;5015095;28;20029;-69
2022/09/28 03:35:10;;;;;;;5.82;3.92;;;13.70;99.90;;;;;;5014007;28;20045;-68
2022/09/28 03:37:36;;;;;;;4.43;2.95;;;13.60;99.90;;;;;;5014902;28;20029;-68
2022/09/28 03:40:03;;;;;;;8.50;2.55;;;13.60;99.90;;;;;;5014922;28;20025;-69
2022/09/28 03:42:29;;;;;;;5.97;2.50;;;13.60;99.90;;;;;;5014840;28;20029;-69
2022/09/28 03:44:55;;;;;;;5.65;3.05;;;13.60;99.90;;;;;;5014670;28;20036;-68
2022/09/28 03:47:22;;;;;;;4.55;2.72;;;13.60;99.90;;;;;;5041511;28;20120;-68
2022/09/28 03:49:47;;;;;;;4.05;2.35;;;13.60;99.90;;;;;;5014797;28;20044;-69
2022/09/28 03:52:14;;;;;;;5.80;2.78;;;13.70;99.90;;;;;;5032374;28;20618;-68
2022/09/28 03:54:40;;;;;;;7.13;3.33;;;13.70;99.90;;;;;;5031598;28;20068;-68
2022/09/28 03:57:06;;;;;;;4.43;2.67;;;13.70;99.90;;;;;;5014860;28;20102;-68
2022/09/28 03:59:32;;;;;;;5.22;2.97;;;13.70;99.90;;;;;;5014754;28;20261;-66
2022/09/28 04:01:57;;;;;;;4.78;3.08;;;13.60;99.90;;;;;;5014501;28;20443;-68
2022/09/28 04:04:24;;;;;;;6.53;3.28;;;13.60;99.90;;;;;;5014033;28;20476;-66
2022/09/28 04:06:50;;;;;;;5.40;3.00;;;13.60;99.90;;;;;;5013548;28;20049;-69
2022/09/28 04:09:16;;;;;;;8.98;3.35;;;13.50;99.90;;;;;;5031029;28;20029;-68
2022/09/28 04:11:45;;;;;;;5.60;3.15;;;13.50;99.90;;;;;;5035601;28;20057;-68
2022/09/28 04:14:11;;;;;;;8.48;3.15;;;13.40;99.90;;;;;;5041318;28;20044;-68
2022/09/28 04:16:37;;;;;;;9.07;2.95;;;13.30;99.90;;;;;;5059479;28;20033;-65
2022/09/28 04:19:07;;;;;;;4.50;2.38;;;13.30;99.90;;;;;;5029363;28;20029;-66
2022/09/28 04:21:52;;;;;;;7.85;2.78;;;13.30;99.90;;;;;;5043271;28;20032;-67
2022/09/28 04:24:19;;;;;;;5.38;2.70;;;13.40;99.90;;;;;;5030167;28;20033;-67
2022/09/28 04:26:45;;;;;;;6.47;2.90;;;13.30;99.90;;;;;;5023999;28;20017;-67
2022/09/28 04:29:17;;;;;;;5.63;2.67;;;13.40;99.90;;;;;;5032885;28;20180;-65
2022/09/28 04:31:54;;;;;;;5.80;3.00;;;13.40;99.90;;;;;;5033814;28;20033;-66
2022/09/28 04:34:41;;;;;;;6.60;3.00;;;13.50;99.90;;;;;;5035370;28;20046;-68
2022/09/28 04:37:06;;;;;;;5.95;3.17;;;13.50;99.90;;;;;;5014484;28;20113;-68
2022/09/28 04:39:32;;;;;;;5.85;2.60;;;13.50;99.90;;;;;;5031674;28;20029;-68
2022/09/28 04:41:58;;;;;;;4.72;2.90;;;13.60;99.90;;;;;;5014314;28;20025;-68
2022/09/28 04:44:26;;;;;;;7.05;3.90;;;13.70;99.90;;;;;;5014268;28;20427;-68
2022/09/28 04:46:57;;;;;;;6.00;3.92;;;13.70;99.90;;;;;;5018164;28;20121;-68
2022/09/28 04:49:28;;;;;;;7.80;3.78;;;13.80;99.90;;;;;;5036198;28;20034;-68
2022/09/28 04:52:04;;;;;;;8.52;3.42;;;13.80;99.90;;;;;;5017656;28;20033;-68
2022/09/28 04:54:32;;;;;;;5.97;2.70;;;13.70;99.90;;;;;;5017312;28;20029;-68
2022/09/28 04:56:58;;;;;;;8.18;3.17;;;13.70;99.90;;;;;;5017761;28;20026;-68
2022/09/28 04:59:24;;;;;;;5.25;2.53;;;13.80;99.90;;;;;;5034784;28;20095;-68
2022/09/28 05:01:52;;;;;;;7.85;3.55;;;13.90;99.90;;;;;;5033992;28;20033;-68
2022/09/28 05:04:18;;;;;;;6.72;3.80;;;13.90;99.90;;;;;;5035547;28;20380;-68
2022/09/28 05:06:55;;;;;;;9.57;4.18;;;13.90;99.90;;;;;;5040087;28;20053;-67
2022/09/28 05:09:22;;;;;;;6.45;3.28;;;14.00;99.90;;;;;;5025407;28;20040;-68
2022/09/28 05:11:51;;;;;;;5.60;3.00;;;14.00;99.90;;;;;;5016999;28;20036;-68
2022/09/28 05:14:23;;;;;;;8.68;4.13;;;14.00;99.90;;;;;;5033214;28;20037;-68
2022/09/28 05:16:50;;;;;;;10.00;4.70;;;14.10;99.90;;;;;;5033670;28;20026;-67
2022/09/28 05:19:25;;;;;;;7.50;3.92;;;14.00;99.90;;;;;;5034598;28;20424;-68
2022/09/28 05:21:53;;;;;;;10.18;4.00;;;13.90;99.90;;;;;;5016742;28;20040;-68
2022/09/28 05:24:19;;;;;;;9.82;4.03;;;13.90;99.90;;;;;;5034526;28;20017;-67
2022/09/28 05:26:49;;;;;;;9.40;3.85;;;13.80;99.90;;;;;;5033486;28;20120;-68
2022/09/28 05:29:15;;;;;;;6.50;4.15;;;13.90;99.90;;;;;;5033743;28;20387;-68
2022/09/28 05:31:41;;;;;;;9.48;4.15;;;13.80;99.90;;;;;;5035052;28;20021;-67
2022/09/28 05:34:39;;;;;;;5.97;3.65;;;13.90;99.90;;;;;;5011904;28;20042;-67
2022/09/28 05:37:05;;;;;;;6.28;3.80;;;14.00;99.90;;;;;;5028852;28;20033;-67
2022/09/28 05:39:31;;;;;;;8.13;4.00;;;13.90;99.90;;;;;;5012246;28;20589;-68
2022/09/28 05:41:57;;;;;;;7.80;5.28;;;14.00;99.90;;;;;;4996075;28;20022;-68
2022/09/28 05:44:23;;;;;;;6.90;4.13;;;14.00;99.90;;;;;;5003501;28;20073;-68
2022/09/28 05:46:53;;;;;;;8.00;3.85;;;14.00;99.90;;;;;;5012023;28;20048;-68
2022/09/28 05:49:19;;;;;;;8.50;4.50;;;14.00;99.90;;;;;;5011720;28;20041;-67
2022/09/28 05:51:45;;;;;;;7.50;4.15;;;14.00;99.90;;;;;;5012019;28;20030;-68
2022/09/28 05:54:12;;;;;;;6.32;4.00;;;13.90;99.90;;;;;;4995209;28;20170;-68
2022/09/28 05:56:41;;;;;;;6.70;4.30;;;14.10;99.90;;;;;;5027489;28;20038;-68
2022/09/28 05:59:08;;;;;;;5.07;3.35;;;14.10;99.90;;;;;;4998843;28;20046;-68
2022/09/28 06:01:35;;;;;;;8.00;3.88;;;14.10;99.90;;;;;;4995251;28;20109;-68
2022/09/28 06:04:05;;;;;;;5.85;3.55;;;14.00;99.90;;;;;;5011259;28;20064;-68
2022/09/28 06:06:30;;;;;;;7.63;4.40;;;13.90;99.90;;;;;;5011428;28;20497;-68
2022/09/28 06:08:56;;;;;;;7.13;3.95;;;14.00;99.90;;;;;;5011901;28;20040;-68
2022/09/28 06:11:42;;;;;;;6.28;4.57;;;14.00;99.90;;;;;;4972681;28;20116;-68
2022/09/28 06:14:18;;;;;;;6.78;4.15;;;14.00;99.90;;;;;;4955973;28;20053;-68
2022/09/28 06:16:44;;;;;;;7.85;4.15;;;14.10;99.90;;;;;;4956078;28;20023;-68
2022/09/28 06:19:11;;;;;;;10.13;4.72;;;14.20;99.90;;;;;;4956453;28;20027;-68
2022/09/28 06:21:43;;;;;;;8.23;4.67;;;14.30;99.90;;;;;;4972572;28;20444;-68
2022/09/28 06:24:09;;;;;;;7.38;4.35;;;14.30;99.90;;;;;;4972387;28;20279;-68
2022/09/28 06:26:36;;;;;;;8.15;4.43;;;14.40;99.90;;;;;;4956373;28;20055;-68
2022/09/28 06:29:03;;;;;;;8.63;4.07;;;14.40;99.90;;;;;;4971800;28;20050;-68
2022/09/28 06:31:30;;;;;;;11.38;4.97;;;14.40;99.90;;;;;;4953200;29;20031;-68
2022/09/28 06:33:56;;;;;;;6.88;3.95;;;14.30;99.90;;;;;;4970161;28;20529;-68
2022/09/28 06:36:22;;;;;;;8.80;4.30;;;14.40;99.90;;;;;;4956329;28;20086;-68
2022/09/28 06:38:48;;;;;;;6.05;3.38;;;14.40;99.90;;;;;;4955883;28;20119;-68
2022/09/28 06:41:15;;;;;;;5.93;3.70;;;14.40;99.90;;;;;;4955893;28;20031;-68
2022/09/28 06:43:42;;;;;;;4.88;3.47;;;14.40;99.90;;;;;;4972103;28;20516;-68
2022/09/28 06:46:45;;;;;;;9.48;5.18;;;14.40;99.90;;;;;;4972060;28;20031;-68
2022/09/28 06:49:30;;;;;;;12.27;5.05;;;14.40;99.90;;;;;;5020725;28;20036;-68
2022/09/28 06:52:14;;;;;;;17.33;7.45;;;14.50;99.90;;;;;;5033147;28;20125;-68
2022/09/28 06:55:02;;;;;;;20.13;7.63;;;14.50;99.90;;;;;;5032942;28;20123;-68
2022/09/28 06:57:37;;;;;;;15.60;7.40;;;14.60;99.90;;;;;;5032974;28;20218;-68
2022/09/28 07:00:04;;;;;;;20.27;8.85;;;14.70;99.90;;;;;;5031403;28;20121;-68
2022/09/28 07:02:31;;;;;;;15.18;7.07;;;14.70;99.90;;;;;;5031838;28;20476;-68
2022/09/28 07:05:11;;;;;;;9.10;4.65;;;14.80;99.90;;;;;;5014280;28;20032;-68
2022/09/28 07:07:54;;;;;;;15.48;6.90;;;14.80;99.90;;;;;;5029127;28;20550;-68
2022/09/28 07:10:44;;;;;;;11.65;6.65;;;14.80;99.90;;;;;;5019706;28;20483;-68
2022/09/28 07:13:48;;;;;;;15.07;6.50;;;14.90;99.90;;;;;;4989991;28;20121;-68
2022/09/28 07:16:14;;;;;;;12.80;7.07;;;14.90;99.90;;;;;;4974286;28;20611;-68
2022/09/28 07:18:41;;;;;;;15.57;6.57;;;15.00;99.90;;;;;;4973889;28;20031;-68
2022/09/28 07:21:07;;;;;;;14.98;5.70;;;15.10;99.90;;;;;;4973763;28;20066;-68
2022/09/28 07:23:33;;;;;;;12.20;6.20;;;15.20;99.90;;;;;;4973035;28;20039;-68
2022/09/28 07:26:22;;;;;;;12.23;5.57;;;15.30;99.90;;;;;;4932228;29;20123;-67
2022/09/28 07:29:02;;;;;;;8.95;4.70;;;15.50;99.90;;;;;;4932098;29;20498;-68
2022/09/28 07:31:32;;;;;;;7.13;3.33;;;15.40;99.90;;;;;;4932472;29;20087;-68
2022/09/28 07:34:22;;;;;;;7.07;3.30;;;15.40;99.90;;;;;;4913019;29;20044;-68
2022/09/28 07:37:04;;;;;;;48.75;20.08;;;15.40;99.90;;;;;;4913091;29;20044;-68
2022/09/28 07:39:30;;;;;;;6.78;3.78;;;15.40;99.90;;;;;;4897266;29;20040;-68
2022/09/28 07:41:55;;;;;;;10.93;4.55;;;15.30;99.90;;;;;;4913091;29;20024;-68
2022/09/28 07:44:21;;;;;;;5.15;2.50;;;15.40;99.90;;;;;;4920718;29;20140;-68
2022/09/28 07:46:51;;;;;;;8.50;3.55;;;15.30;99.90;;;;;;4932453;29;20060;-68
2022/09/28 07:49:26;;;;;;;7.72;3.83;;;15.30;99.90;;;;;;4931595;29;20111;-68
2022/09/28 07:51:58;;;;;;;7.47;4.07;;;15.40;99.90;;;;;;4932370;29;20204;-68
2022/09/28 07:54:27;;;;;;;6.35;3.40;;;15.40;99.90;;;;;;4919221;29;20040;-68
2022/09/28 07:57:20;;;;;;;8.82;3.92;;;15.30;99.90;;;;;;4917898;29;20091;-67
2022/09/28 07:59:52;;;;;;;5.22;3.33;;;15.30;99.90;;;;;;4933107;29;20419;-68
2022/09/28 08:02:41;;;;;;;6.82;3.40;;;15.30;99.90;;;;;;4937062;29;20288;-68
2022/09/28 08:05:08;;;;;;;4.13;3.03;;;15.50;99.90;;;;;;4951833;29;20371;-68
2022/09/28 08:07:37;;;;;;;10.65;4.35;;;15.60;99.90;;;;;;4924952;29;20056;-68
2022/09/28 08:10:06;;;;;;;9.98;4.57;;;15.60;99.90;;;;;;4937679;29;20478;-67
2022/09/28 08:12:39;;;;;;;7.20;3.75;;;15.60;99.90;;;;;;5031738;28;20069;-68
2022/09/28 08:15:23;;;;;;;7.32;3.90;;;16.00;99.90;;;;;;5013492;28;20073;-66
2022/09/28 08:17:53;;;;;;;5.72;3.58;;;16.30;99.90;;;;;;5030786;28;20033;-66
2022/09/28 08:23:07;;;;;;;4.63;3.03;;;16.60;99.90;;;;;;5037085;28;20029;-68
2022/09/28 08:25:37;;;;;;;10.95;3.22;;;16.80;99.90;;;;;;5020944;28;20032;-68
2022/09/28 08:28:06;;;;;;;5.25;2.20;;;16.40;99.90;;;;;;5037592;28;20030;-69
2022/09/28 08:30:35;;;;;;;5.85;3.00;;;16.50;99.90;;;;;;5007392;28;20111;-68
2022/09/28 08:33:16;;;;;;;6.65;2.97;;;16.60;99.90;;;;;;5035939;28;20036;-68
2022/09/28 08:35:42;;;;;;;6.47;3.03;;;16.80;99.90;;;;;;5037418;28;20389;-67
2022/09/28 08:38:13;;;;;;;4.75;2.58;;;16.60;99.90;;;;;;5020151;28;20116;-68
2022/09/28 08:41:03;;;;;;;4.85;2.42;;;17.10;99.90;;;;;;5038676;28;20055;-67
2022/09/28 08:44:13;;;;;;;6.07;2.35;;;17.20;99.90;;;;;;5019333;28;20140;-68
2022/09/28 08:47:04;;;;;;;4.75;2.55;;;17.30;99.90;;;;;;5016027;28;20056;-68
2022/09/28 08:49:46;;;;;;;6.95;2.38;;;17.40;99.90;;;;;;4999433;28;20048;-68
2022/09/28 08:52:29;;;;;;;6.35;2.80;;;17.40;99.90;;;;;;4999962;28;20060;-67
2022/09/28 08:55:38;;;;;;;4.85;2.20;;;17.30;99.90;;;;;;4956866;28;20054;-67
2022/09/28 08:58:17;;;;;;;2.30;1.85;;;17.20;99.90;;;;;;4938692;29;20042;-68
2022/09/28 09:00:48;;;;;;;3.53;1.92;;;17.10;99.90;;;;;;4952198;29;20035;-68
2022/09/28 09:03:24;;;;;;;1.88;1.73;;;17.20;99.90;;;;;;4931556;29;20101;-67
2022/09/28 09:06:33;;;;;;;3.70;1.67;;;17.10;99.90;;;;;;4922406;29;20036;-68
2022/09/28 09:09:39;;;;;;;2.35;1.95;;;16.90;99.90;;;;;;4924957;29;20434;-68
2022/09/28 09:12:37;;;;;;;4.60;2.35;;;17.00;99.90;;;;;;4925711;29;20169;-68
2022/09/28 09:15:33;;;;;;;5.55;2.50;;;17.10;99.90;;;;;;4860456;29;20053;-67
2022/09/28 09:18:11;;;;;;;4.82;2.83;;;17.00;99.90;;;;;;4846619;29;20041;-68
2022/09/28 09:20:57;;;;;;;6.82;2.55;;;17.10;99.90;;;;;;4872075;29;20058;-66
2022/09/28 09:23:40;;;;;;;6.97;2.25;;;17.10;99.90;;;;;;4860393;29;20471;-67
2022/09/28 09:26:17;;;;;;;5.55;3.00;;;17.10;99.90;;;;;;4860442;29;20045;-66
2022/09/28 09:29:04;;;;;;;5.40;2.97;;;17.20;99.90;;;;;;4859838;29;20038;-68
2022/09/28 09:32:06;;;;;;;5.88;2.25;;;17.60;99.90;;;;;;4895964;29;20048;-68
2022/09/28 09:34:55;;;;;;;5.15;2.50;;;17.60;99.90;;;;;;4900421;29;20609;-68
2022/09/28 09:37:55;;;;;;;6.07;2.63;;;17.70;99.90;;;;;;4878909;29;20068;-66
2022/09/28 09:41:17;;;;;;;7.90;2.60;;;17.90;99.90;;;;;;4841687;29;20179;-68
2022/09/28 09:44:10;;;;;;;11.27;3.58;;;17.90;99.90;;;;;;4845376;29;20148;-69
2022/09/28 09:47:06;;;;;;;3.42;2.33;;;17.90;99.90;;;;;;4846450;29;20042;-68
2022/09/28 09:50:07;;;;;;;6.28;3.03;;;17.40;99.90;;;;;;4836059;29;20037;-69
2022/09/28 09:52:47;;;;;;;7.30;3.78;;;17.70;99.90;;;;;;4914609;29;20036;-68
2022/09/28 09:55:25;;;;;;;9.13;3.13;;;17.90;99.90;;;;;;4915852;29;20048;-69
2022/09/28 09:58:03;;;;;;;7.15;4.03;;;18.10;99.90;;;;;;4915875;29;20028;-68
2022/09/28 10:00:41;;;;;;;8.23;3.67;;;18.20;99.90;;;;;;4907599;29;20040;-68
2022/09/28 10:03:35;;;;;;;7.15;3.78;;;18.30;99.90;;;;;;4917355;29;20051;-67
2022/09/28 10:06:18;;;;;;;6.70;3.95;;;18.50;99.90;;;;;;4921276;29;20047;-68
2022/09/28 10:08:46;;;;;;;;;;;18.60;99.90;;;;;;4938499;29;20107;-68
2022/09/28 10:11:24;;;;;;;9.65;3.90;;;18.70;99.90;;;;;;4935240;29;19914;-68
2022/09/28 10:13:54;;;;;;;11.30;4.20;;;18.70;99.90;;;;;;4954818;28;20097;-68
2022/09/28 10:16:40;;;;;;;7.13;4.03;;;18.70;99.90;;;;;;5033604;28;20029;-68
2022/09/28 10:19:15;;;;;;;7.95;4.25;;;18.70;99.90;;;;;;5032851;28;20041;-68
2022/09/28 10:22:03;;;;;;;10.05;4.75;;;18.50;99.90;;;;;;5033717;28;20542;-67
2022/09/28 10:24:59;;;;;;;9.13;4.97;;;18.40;99.90;;;;;;5034452;28;20032;-68
2022/09/28 10:27:30;;;;;;;10.32;5.32;;;18.40;99.90;;;;;;4956509;28;20398;-67
2022/09/28 10:30:09;;;;;;;8.93;4.95;;;18.60;99.90;;;;;;4955692;28;20046;-67
2022/09/28 10:32:43;;;;;;;10.50;5.38;;;18.60;99.90;;;;;;4938670;28;20095;-68
2022/09/28 10:35:18;;;;;;;10.82;5.25;;;18.20;99.90;;;;;;4970827;28;20068;-68
2022/09/28 10:38:02;;;;;;;11.50;5.20;;;18.00;99.90;;;;;;4987847;28;20035;-66
2022/09/28 10:40:55;;;;;;;10.43;5.78;;;18.00;99.90;;;;;;4964845;28;20035;-68
2022/09/28 10:43:47;;;;;;;10.48;5.55;;;18.20;99.90;;;;;;4954723;28;20042;-67
2022/09/28 10:46:20;;;;;;;10.13;4.72;;;18.20;99.90;;;;;;4987930;28;20033;-67
2022/09/28 10:48:50;;;;;;;11.20;5.57;;;18.40;99.90;;;;;;5001598;28;20034;-68
2022/09/28 10:51:17;;;;;;;8.77;4.90;;;18.50;99.90;;;;;;4954844;28;20049;-67
2022/09/28 10:54:02;;;;;;;9.80;4.80;;;18.40;99.90;;;;;;4987290;28;20473;-67
2022/09/28 10:56:41;;;;;;;11.55;5.22;;;18.60;99.90;;;;;;4952562;28;20130;-67
2022/09/28 10:59:22;;;;;;;8.13;5.07;;;18.60;99.90;;;;;;4953395;28;20043;-67
2022/09/28 11:01:56;;;;;;;11.38;6.43;;;18.60;99.90;;;;;;4987337;28;20130;-67
2022/09/28 11:04:26;;;;;;;10.48;5.47;;;18.70;99.90;;;;;;5031644;28;20034;-67
2022/09/28 11:06:58;;;;;;;13.73;5.32;;;18.70;99.90;;;;;;5030622;28;20050;-67
2022/09/28 11:09:39;;;;;;;8.52;5.20;;;18.60;99.90;;;;;;5031120;28;20490;-68
2022/09/28 11:12:14;;;;;;;10.27;6.10;;;18.70;99.90;;;;;;5030829;28;20088;-68
2022/09/28 11:14:42;;;;;;;10.88;5.28;;;18.70;99.90;;;;;;5028845;28;20388;-68
2022/09/28 11:17:37;;;;;;;11.55;4.97;;;18.60;99.90;;;;;;5029941;28;20459;-67
2022/09/28 11:20:23;;;;;;;10.32;5.47;;;18.80;99.90;;;;;;5030666;28;20025;-68
2022/09/28 11:22:53;;;;;;;9.15;4.95;;;18.80;99.90;;;;;;5017931;28;20042;-68
2022/09/28 11:25:29;;;;;;;9.70;4.80;;;18.80;99.90;;;;;;5028406;28;20399;-68
2022/09/28 11:27:58;;;;;;;10.90;5.70;;;18.90;99.90;;;;;;5029492;28;20033;-68
2022/09/28 11:30:24;;;;;;;12.60;6.22;;;18.90;99.90;;;;;;5046650;28;20018;-67
2022/09/28 11:33:26;;;;;;;13.10;5.70;;;18.80;99.90;;;;;;5013713;28;20029;-68
2022/09/28 11:36:53;;;;;;;10.02;6.18;;;19.00;99.90;;;;;;5022193;28;20033;-67
2022/09/28 11:39:27;;;;;;;11.55;5.85;;;19.10;99.90;;;;;;5013921;28;20129;-68
2022/09/28 11:42:13;;;;;;;11.65;6.50;;;19.10;99.90;;;;;;5028086;28;20025;-68
2022/09/28 11:44:45;;;;;;;11.38;6.70;;;19.10;99.90;;;;;;5019908;28;20084;-68
2022/09/28 11:47:35;;;;;;;14.25;6.68;;;19.10;99.90;;;;;;4989268;28;20121;-68
2022/09/28 11:50:17;;;;;;;12.90;7.47;;;19.10;99.90;;;;;;5025476;28;20052;-68
2022/09/28 11:53:10;;;;;;;14.25;6.50;;;19.10;99.90;;;;;;5032373;28;20025;-68
2022/09/28 11:55:53;;;;;;;14.23;7.78;;;19.10;99.90;;;;;;5030309;28;20069;-68
2022/09/28 11:58:36;;;;;;;19.60;10.73;;;19.10;99.90;;;;;;5038822;28;20476;-68
2022/09/28 12:01:18;;;;;;;17.65;9.02;;;19.00;99.90;;;;;;5018795;28;20053;-66
2022/09/28 12:04:35;;;;;;;15.27;8.93;;;19.10;99.90;;;;;;5012735;28;20357;-68
2022/09/28 12:07:22;;;;;;;13.10;8.27;;;18.90;99.90;;;;;;4997612;28;20148;-68
2022/09/28 12:09:57;;;;;;;14.43;8.65;;;19.10;99.90;;;;;;5026047;28;20022;-66
2022/09/28 12:12:37;;;;;;;15.55;8.95;;;19.10;99.90;;;;;;5012748;28;20064;-68
2022/09/28 12:15:35;;;;;;;15.98;9.48;;;19.20;99.90;;;;;;5014219;28;20049;-68
2022/09/28 12:18:24;;;;;;;14.52;8.88;;;19.10;99.90;;;;;;5025172;28;20021;-67
2022/09/28 12:21:08;;;;;;;18.45;8.73;;;19.10;99.90;;;;;;5029377;28;20487;-67
2022/09/28 12:23:37;;;;;;;14.20;8.65;;;19.00;99.90;;;;;;5032206;28;20038;-67
2022/09/28 12:26:14;;;;;;;18.55;9.05;;;18.80;99.90;;;;;;5032184;28;20022;-66
2022/09/28 12:28:49;;;;;;;17.08;9.20;;;18.90;99.90;;;;;;5032562;28;20478;-67
2022/09/28 12:31:20;;;;;;;15.32;8.93;;;19.10;99.90;;;;;;5032208;28;20111;-68
2022/09/28 12:33:49;;;;;;;15.73;9.48;;;19.10;99.90;;;;;;5014612;28;20052;-68
2022/09/28 12:36:34;;;;;;;14.38;8.93;;;19.10;99.90;;;;;;5031830;28;20123;-67
2022/09/28 12:39:09;;;;;;;13.25;7.80;;;19.10;99.90;;;;;;5022973;28;20038;-68
2022/09/28 12:42:05;;;;;;;16.75;10.15;;;19.10;99.90;;;;;;5029580;28;20108;-68
2022/09/28 12:44:31;;;;;;;23.13;9.40;;;19.30;99.90;;;;;;5031478;28;20026;-68
2022/09/28 12:47:15;;;;;;;16.10;8.80;;;19.30;99.90;;;;;;5030138;28;20026;-69
2022/09/28 12:50:00;;;;;;;18.95;9.75;;;19.30;99.90;;;;;;5031906;28;20028;-69
2022/09/28 12:53:05;;;;;;;16.58;9.38;;;19.50;99.90;;;;;;5023271;28;20040;-68
2022/09/28 12:56:00;;;;;;;18.00;9.75;;;19.30;99.90;;;;;;4952223;28;20043;-68
2022/09/28 12:58:45;;;;;;;16.08;7.97;;;19.40;99.90;;;;;;4948613;29;20031;-68
2022/09/28 13:01:26;;;;;;;15.50;8.88;;;19.20;99.90;;;;;;4953446;28;20035;-67
2022/09/28 13:04:19;;;;;;;16.15;9.65;;;19.40;99.90;;;;;;4950887;28;20163;-67
2022/09/28 13:07:00;;;;;;;14.60;9.48;;;19.40;99.90;;;;;;4960770;28;20046;-67
2022/09/28 13:09:27;;;;;;;14.95;9.40;;;19.30;99.90;;;;;;4960711;28;20132;-66
2022/09/28 13:12:12;;;;;;;14.23;8.32;;;19.40;99.90;;;;;;4956556;28;20015;-69
2022/09/28 13:15:23;;;;;;;14.75;9.05;;;19.30;99.90;;;;;;4961001;28;20023;-67
2022/09/28 13:18:01;;;;;;;17.83;9.90;;;19.30;99.90;;;;;;4888056;29;20068;-65
2022/09/28 13:20:49;;;;;;;18.15;10.18;;;19.50;99.90;;;;;;4898721;29;20449;-67
2022/09/28 13:23:22;;;;;;;16.20;10.30;;;19.50;99.90;;;;;;4896635;29;20029;-69
2022/09/28 13:25:58;;;;;;;14.27;9.10;;;19.60;99.90;;;;;;4896087;29;20123;-68
2022/09/28 13:28:25;;;;;;;14.48;8.80;;;19.60;99.90;;;;;;4893269;29;20040;-69
2022/09/28 13:30:52;;;;;;;14.75;9.10;;;19.50;99.90;;;;;;4891581;29;20032;-69
2022/09/28 13:33:29;;;;;;;16.75;9.55;;;19.60;99.90;;;;;;4949194;28;20059;-68
2022/09/28 13:35:55;;;;;;;14.30;9.00;;;19.70;99.90;;;;;;4938390;29;20054;-68